Time;durP1;ratioP1;P1;durP2;ratioP2;P2;SDS_P1;SDS_P2;PMS_P1;PMS_P2;Temp;Humidity;BMP_temperature;BMP_pressure;BME280_temperature;BME280_humidity;BME280_pressure;Samples;Min_cycle;Max_cycle;Signal;HPM_P1;HPM_P2
2020/12/30 00:00:12;;;;;;;9.40;3.35;;;11.80;69.60;;;;;;5054329;28;20564;-69
2020/12/30 00:02:38;;;;;;;7.35;3.22;;;11.80;69.90;;;;;;5054566;28;20039;-71
2020/12/30 00:05:08;;;;;;;9.20;3.30;;;11.80;69.70;;;;;;5054783;28;20025;-71
2020/12/30 00:07:38;;;;;;;6.40;2.72;;;11.70;69.70;;;;;;5052992;28;20025;-72
2020/12/30 00:10:05;;;;;;;9.45;3.40;;;11.80;69.80;;;;;;5054200;28;20021;-71
2020/12/30 00:12:33;;;;;;;10.60;3.08;;;11.80;69.60;;;;;;5054268;28;20033;-71
2020/12/30 00:14:58;;;;;;;8.77;2.97;;;11.80;69.60;;;;;;5054046;28;20386;-72
2020/12/30 00:17:24;;;;;;;9.93;2.90;;;11.70;69.80;;;;;;5054414;28;20045;-72
2020/12/30 00:19:50;;;;;;;8.40;3.17;;;11.70;69.60;;;;;;5054073;28;20060;-70
2020/12/30 00:22:17;;;;;;;8.00;2.85;;;11.70;69.70;;;;;;5054067;28;20036;-70
2020/12/30 00:24:43;;;;;;;15.98;3.60;;;11.70;69.90;;;;;;5053945;28;20052;-69
2020/12/30 00:27:10;;;;;;;8.13;3.00;;;11.70;70.00;;;;;;5054788;28;20029;-69
2020/12/30 00:29:35;;;;;;;15.10;4.45;;;11.70;69.90;;;;;;5054112;28;20025;-71
2020/12/30 00:32:02;;;;;;;11.13;2.92;;;11.60;70.00;;;;;;5053911;28;20047;-69
2020/12/30 00:34:28;;;;;;;7.13;2.50;;;11.70;70.30;;;;;;5053808;28;20039;-69
2020/12/30 00:36:53;;;;;;;6.38;2.40;;;11.60;70.20;;;;;;5053837;28;20045;-70
2020/12/30 00:39:19;;;;;;;9.23;2.47;;;11.60;70.00;;;;;;5053785;28;20021;-70
2020/12/30 00:41:45;;;;;;;8.85;3.00;;;11.70;70.20;;;;;;5053910;28;20032;-69
2020/12/30 00:44:10;;;;;;;9.82;2.50;;;11.60;70.00;;;;;;5053962;28;20029;-71
2020/12/30 00:46:36;;;;;;;9.32;2.75;;;11.60;70.00;;;;;;5053643;28;20025;-69
2020/12/30 00:49:02;;;;;;;8.98;2.70;;;11.60;70.50;;;;;;5053720;28;20029;-69
2020/12/30 00:51:28;;;;;;;8.23;2.75;;;11.60;70.60;;;;;;5052330;28;20037;-70
2020/12/30 00:53:54;;;;;;;6.57;2.08;;;11.60;70.30;;;;;;5053578;28;20031;-70
2020/12/30 00:56:20;;;;;;;7.70;2.90;;;11.60;70.40;;;;;;5053591;28;20029;-69
2020/12/30 00:58:45;;;;;;;11.48;2.50;;;11.60;70.70;;;;;;5052658;28;20029;-68
2020/12/30 01:01:11;;;;;;;11.05;2.17;;;11.60;70.60;;;;;;5053106;28;20466;-69
2020/12/30 01:03:39;;;;;;;8.38;2.60;;;11.60;70.50;;;;;;5053289;28;20021;-70
2020/12/30 01:06:05;;;;;;;10.70;2.88;;;11.50;70.60;;;;;;5053421;28;20025;-70
2020/12/30 01:08:31;;;;;;;9.18;2.58;;;11.50;70.60;;;;;;5053231;28;20021;-68
2020/12/30 01:10:58;;;;;;;11.52;3.03;;;11.50;70.90;;;;;;5053431;28;20066;-69
2020/12/30 01:13:23;;;;;;;11.40;4.05;;;11.50;71.00;;;;;;5052980;28;20024;-70
2020/12/30 01:15:50;;;;;;;11.93;4.00;;;11.50;71.80;;;;;;5052742;28;20068;-69
2020/12/30 01:18:16;;;;;;;13.13;4.68;;;11.50;70.90;;;;;;5053153;28;20032;-70
2020/12/30 01:20:41;;;;;;;15.50;5.20;;;11.50;70.80;;;;;;5051682;28;20021;-70
2020/12/30 01:23:07;;;;;;;13.30;5.15;;;11.50;70.70;;;;;;5052913;28;20028;-69
2020/12/30 01:25:33;;;;;;;18.35;5.90;;;11.40;71.10;;;;;;5053009;28;20071;-69
2020/12/30 01:27:58;;;;;;;14.00;5.78;;;11.40;70.90;;;;;;5053169;28;20119;-70
2020/12/30 01:30:24;;;;;;;17.10;5.55;;;11.40;70.90;;;;;;5052789;28;20097;-70
2020/12/30 01:32:50;;;;;;;15.90;5.88;;;11.40;71.10;;;;;;5052727;28;20036;-69
2020/12/30 01:35:16;;;;;;;14.52;5.72;;;11.40;71.10;;;;;;5052712;28;20449;-70
2020/12/30 01:37:42;;;;;;;13.45;6.60;;;11.40;70.90;;;;;;5052620;28;20090;-69
2020/12/30 01:40:09;;;;;;;15.43;6.85;;;11.40;71.20;;;;;;5052813;28;20071;-70
2020/12/30 01:42:48;;;;;;;14.38;5.10;;;11.50;70.90;;;;;;5052871;28;20039;-70
2020/12/30 01:45:15;;;;;;;11.68;4.78;;;11.50;70.80;;;;;;5052836;28;20036;-70
2020/12/30 01:47:44;;;;;;;9.40;4.10;;;11.50;70.80;;;;;;5052879;28;20383;-68
2020/12/30 01:50:12;;;;;;;15.43;3.90;;;11.50;70.40;;;;;;5052570;28;20100;-70
2020/12/30 01:52:40;;;;;;;10.75;3.90;;;11.50;70.50;;;;;;5052853;28;20033;-70
2020/12/30 01:55:06;;;;;;;9.32;3.20;;;11.50;70.70;;;;;;5052614;28;20022;-70
2020/12/30 01:57:31;;;;;;;5.88;2.47;;;11.40;70.70;;;;;;5052602;28;20036;-69
2020/12/30 01:59:57;;;;;;;7.30;2.50;;;11.40;70.50;;;;;;5052780;28;20086;-70
2020/12/30 02:02:28;;;;;;;10.35;3.50;;;11.50;70.40;;;;;;5052761;28;20047;-71
2020/12/30 02:04:59;;;;;;;7.47;2.58;;;11.50;70.20;;;;;;5052241;28;20459;-70
2020/12/30 02:07:25;;;;;;;9.32;2.35;;;11.50;69.90;;;;;;5052419;28;20375;-68
2020/12/30 02:09:56;;;;;;;11.30;2.67;;;11.60;69.90;;;;;;5055432;28;20029;-68
2020/12/30 02:12:21;;;;;;;8.45;2.50;;;11.50;69.80;;;;;;5056424;28;20025;-69
2020/12/30 02:14:47;;;;;;;10.88;2.38;;;11.50;69.50;;;;;;5056320;28;20160;-69
2020/12/30 02:17:14;;;;;;;6.90;2.13;;;11.50;69.60;;;;;;5056572;28;20083;-70
2020/12/30 02:19:40;;;;;;;5.70;1.98;;;11.60;69.40;;;;;;5056613;28;20049;-69
2020/12/30 02:22:08;;;;;;;6.50;2.13;;;11.70;69.40;;;;;;5058288;28;20029;-69
2020/12/30 02:24:34;;;;;;;5.55;1.90;;;11.70;69.30;;;;;;5057661;28;20022;-69
2020/12/30 02:27:01;;;;;;;4.88;1.65;;;11.70;69.00;;;;;;5056545;28;20161;-69
2020/12/30 02:29:27;;;;;;;7.22;1.83;;;11.70;69.00;;;;;;5056412;28;20033;-70
2020/12/30 02:31:53;;;;;;;7.05;2.15;;;11.70;69.00;;;;;;5056257;28;20459;-69
2020/12/30 02:34:19;;;;;;;9.02;2.05;;;11.70;69.00;;;;;;5056187;28;20039;-68
2020/12/30 02:36:45;;;;;;;5.47;2.10;;;11.70;69.10;;;;;;5054673;28;20136;-69
2020/12/30 02:39:11;;;;;;;8.43;1.88;;;11.70;69.20;;;;;;5056077;28;20385;-69
2020/12/30 02:41:37;;;;;;;8.93;1.90;;;11.70;69.30;;;;;;5056198;28;20028;-69
2020/12/30 02:44:04;;;;;;;8.63;2.58;;;11.70;69.30;;;;;;5055998;28;20107;-70
2020/12/30 02:46:30;;;;;;;6.22;1.90;;;11.60;69.10;;;;;;5055952;28;20108;-70
2020/12/30 02:48:56;;;;;;;7.53;1.85;;;11.60;69.20;;;;;;5055757;28;20476;-70
2020/12/30 02:51:21;;;;;;;7.53;2.00;;;11.60;69.20;;;;;;5055764;28;20347;-69
2020/12/30 02:53:47;;;;;;;8.15;2.13;;;11.60;69.20;;;;;;5056105;28;20025;-69
2020/12/30 02:56:14;;;;;;;6.65;1.58;;;11.60;69.10;;;;;;5055795;28;20033;-70
2020/12/30 02:58:40;;;;;;;6.00;1.80;;;11.60;69.00;;;;;;5055805;28;20465;-69
2020/12/30 03:01:13;;;;;;;6.90;1.80;;;11.60;68.90;;;;;;5055900;28;20035;-69
2020/12/30 03:03:39;;;;;;;10.07;2.28;;;11.60;68.90;;;;;;5056670;28;20037;-71
2020/12/30 03:06:06;;;;;;;8.02;1.60;;;11.50;68.90;;;;;;5055943;28;20104;-69
2020/12/30 03:08:32;;;;;;;5.97;1.40;;;11.50;68.80;;;;;;5055675;28;20044;-70
2020/12/30 03:10:58;;;;;;;7.88;1.75;;;11.60;69.00;;;;;;5055521;28;20441;-69
2020/12/30 03:13:24;;;;;;;3.88;1.55;;;11.60;69.00;;;;;;5055330;28;20526;-69
2020/12/30 03:15:49;;;;;;;6.25;1.90;;;11.60;68.90;;;;;;5055028;28;20059;-69
2020/12/30 03:18:15;;;;;;;6.13;1.42;;;11.60;68.70;;;;;;5055447;28;20017;-69
2020/12/30 03:20:41;;;;;;;4.20;1.33;;;11.50;68.60;;;;;;5053228;28;20028;-69
2020/12/30 03:23:07;;;;;;;4.63;1.58;;;11.50;68.60;;;;;;5055205;28;20527;-69
2020/12/30 03:25:33;;;;;;;10.55;2.28;;;11.40;68.50;;;;;;5055646;28;20438;-69
2020/12/30 03:27:59;;;;;;;5.22;1.58;;;11.40;68.60;;;;;;5055080;28;20027;-70
2020/12/30 03:30:25;;;;;;;5.63;1.27;;;11.40;68.50;;;;;;5055291;28;20397;-71
2020/12/30 03:32:51;;;;;;;8.35;1.48;;;11.40;68.70;;;;;;5055427;28;20355;-69
2020/12/30 03:35:24;;;;;;;7.05;2.33;;;11.30;68.30;;;;;;5055317;28;20028;-69
2020/12/30 03:37:56;;;;;;;9.07;1.90;;;11.30;68.60;;;;;;5055208;28;20094;-70
2020/12/30 03:40:22;;;;;;;5.60;1.33;;;11.20;69.00;;;;;;5054907;28;20021;-70
2020/12/30 03:42:48;;;;;;;5.65;1.63;;;11.20;68.50;;;;;;5054932;28;20025;-71
2020/12/30 03:45:14;;;;;;;4.15;1.30;;;11.20;68.60;;;;;;5054867;28;20092;-70
2020/12/30 03:47:40;;;;;;;6.18;1.40;;;11.20;68.50;;;;;;5055094;28;20024;-70
2020/12/30 03:50:06;;;;;;;8.63;1.90;;;11.20;69.00;;;;;;5054912;28;20377;-70
2020/12/30 03:52:31;;;;;;;7.68;1.75;;;11.20;68.40;;;;;;5054885;28;20439;-70
2020/12/30 03:54:58;;;;;;;4.93;1.83;;;11.10;68.70;;;;;;5054767;28;20033;-70
2020/12/30 03:57:25;;;;;;;6.93;1.60;;;11.20;68.50;;;;;;5056143;28;20059;-70
2020/12/30 03:59:50;;;;;;;6.47;1.42;;;11.20;68.40;;;;;;5057636;28;20053;-71
2020/12/30 04:02:16;;;;;;;4.95;1.50;;;11.20;68.40;;;;;;5057019;28;20482;-70
2020/12/30 04:04:42;;;;;;;4.75;1.30;;;11.30;68.20;;;;;;5053315;28;20021;-70
2020/12/30 04:07:08;;;;;;;5.07;1.48;;;11.20;68.30;;;;;;5054547;28;20382;-70
2020/12/30 04:09:34;;;;;;;5.30;1.77;;;11.30;68.30;;;;;;5054315;28;20100;-69
2020/12/30 04:11:59;;;;;;;5.70;1.40;;;11.30;67.90;;;;;;5054211;28;20032;-69
2020/12/30 04:14:25;;;;;;;5.38;1.60;;;11.20;68.00;;;;;;5054338;28;20123;-69
2020/12/30 04:16:51;;;;;;;5.13;1.70;;;11.20;68.40;;;;;;5054339;28;20041;-70
2020/12/30 04:19:16;;;;;;;5.88;1.65;;;11.20;68.60;;;;;;5054100;28;20032;-70
2020/12/30 04:21:42;;;;;;;5.55;1.60;;;11.20;68.60;;;;;;5054218;28;20416;-69
2020/12/30 04:24:08;;;;;;;6.20;1.50;;;11.20;68.70;;;;;;5053982;28;20031;-69
2020/12/30 04:26:33;;;;;;;6.13;1.42;;;11.20;68.80;;;;;;5054203;28;20104;-69
2020/12/30 04:28:59;;;;;;;5.57;1.92;;;11.30;68.70;;;;;;5053915;28;20083;-69
2020/12/30 04:31:25;;;;;;;7.65;2.40;;;11.30;68.30;;;;;;5052270;28;20108;-70
2020/12/30 04:33:50;;;;;;;6.05;2.28;;;11.30;68.10;;;;;;5053942;28;20025;-70
2020/12/30 04:36:16;;;;;;;6.20;1.88;;;11.20;68.10;;;;;;5053904;28;20040;-70
2020/12/30 04:38:42;;;;;;;9.43;2.92;;;11.20;68.50;;;;;;5054196;28;20073;-70
2020/12/30 04:41:10;;;;;;;6.63;1.67;;;11.10;69.30;;;;;;5053813;28;20021;-70
2020/12/30 04:43:42;;;;;;;10.55;2.00;;;11.20;68.80;;;;;;5053863;28;20086;-70
2020/12/30 04:46:10;;;;;;;7.22;1.60;;;11.20;68.40;;;;;;5053682;28;20060;-70
2020/12/30 04:48:37;;;;;;;8.95;2.03;;;11.30;68.40;;;;;;5053888;28;20031;-69
2020/12/30 04:51:02;;;;;;;6.03;1.65;;;11.30;68.40;;;;;;5053734;28;20092;-70
2020/12/30 04:53:29;;;;;;;8.23;2.38;;;11.30;68.40;;;;;;5053530;28;20096;-69
2020/12/30 04:55:58;;;;;;;5.38;1.77;;;11.30;68.20;;;;;;5053626;28;20137;-69
2020/12/30 04:58:28;;;;;;;6.68;1.70;;;11.30;68.40;;;;;;5053535;28;20029;-70
2020/12/30 05:00:54;;;;;;;6.68;1.77;;;11.30;68.30;;;;;;5053501;28;20336;-70
2020/12/30 05:03:29;;;;;;;7.05;1.90;;;11.30;68.20;;;;;;5053587;28;20116;-70
2020/12/30 05:05:59;;;;;;;4.20;1.60;;;11.20;68.30;;;;;;5053458;28;20025;-70
2020/12/30 05:08:26;;;;;;;9.90;1.98;;;11.20;68.50;;;;;;5053963;28;20516;-69
2020/12/30 05:10:52;;;;;;;10.82;2.10;;;11.20;68.50;;;;;;5053200;28;20108;-70
2020/12/30 05:13:20;;;;;;;5.45;2.20;;;11.20;68.30;;;;;;5052309;28;20531;-70
2020/12/30 05:15:46;;;;;;;8.57;2.10;;;11.10;68.70;;;;;;5053007;28;20175;-70
2020/12/30 05:18:12;;;;;;;6.25;2.03;;;11.10;68.70;;;;;;5053158;28;20048;-70
2020/12/30 05:20:37;;;;;;;7.30;2.10;;;11.20;68.90;;;;;;5053212;28;20037;-70
2020/12/30 05:23:09;;;;;;;5.95;1.70;;;11.20;68.70;;;;;;5053275;28;20021;-68
2020/12/30 05:25:37;;;;;;;9.43;2.15;;;11.20;68.90;;;;;;5053356;28;20474;-69
2020/12/30 05:28:08;;;;;;;9.77;1.80;;;11.10;68.50;;;;;;5053158;28;20115;-70
2020/12/30 05:30:34;;;;;;;7.30;1.90;;;11.10;68.90;;;;;;5053339;28;20536;-70
2020/12/30 05:33:00;;;;;;;7.35;2.00;;;11.00;69.10;;;;;;5053201;28;20411;-69
2020/12/30 05:35:27;;;;;;;6.93;2.15;;;11.00;69.20;;;;;;5052893;28;20029;-68
2020/12/30 05:37:54;;;;;;;10.75;2.13;;;11.00;69.50;;;;;;5053674;28;20087;-69
2020/12/30 05:40:24;;;;;;;6.97;2.00;;;11.00;69.50;;;;;;5053781;28;20025;-70
2020/12/30 05:42:51;;;;;;;6.82;1.65;;;11.00;69.30;;;;;;5053031;28;20437;-70
2020/12/30 05:45:24;;;;;;;7.00;1.90;;;11.00;69.50;;;;;;5056889;28;20031;-70
2020/12/30 05:47:50;;;;;;;8.27;2.58;;;11.10;69.40;;;;;;5057267;28;20017;-71
2020/12/30 05:50:23;;;;;;;8.63;2.30;;;11.10;69.30;;;;;;5057003;28;20021;-70
2020/12/30 05:52:50;;;;;;;7.45;2.28;;;11.10;69.20;;;;;;5057086;28;20485;-69
2020/12/30 05:55:16;;;;;;;7.88;2.17;;;11.10;69.10;;;;;;5056908;28;20025;-69
2020/12/30 05:57:41;;;;;;;10.13;2.75;;;11.10;69.20;;;;;;5057519;28;20055;-68
2020/12/30 06:00:09;;;;;;;7.47;2.70;;;11.10;69.10;;;;;;5057830;28;20025;-71
2020/12/30 06:02:42;;;;;;;6.47;2.70;;;11.10;69.20;;;;;;5057387;28;20029;-71
2020/12/30 06:05:10;;;;;;;8.13;2.80;;;11.00;69.30;;;;;;5057245;28;20501;-69
2020/12/30 06:07:41;;;;;;;10.18;3.45;;;11.00;69.60;;;;;;5057205;28;20025;-68
2020/12/30 06:10:09;;;;;;;7.90;2.78;;;11.00;69.90;;;;;;5056735;28;20021;-69
2020/12/30 06:12:44;;;;;;;5.53;2.60;;;11.00;69.70;;;;;;5056587;28;20501;-69
2020/12/30 06:15:14;;;;;;;6.20;2.20;;;11.10;69.50;;;;;;5056288;28;20036;-69
2020/12/30 06:17:50;;;;;;;9.77;2.42;;;11.10;69.40;;;;;;5056686;28;20040;-70
2020/12/30 06:20:31;;;;;;;12.00;3.38;;;11.00;69.80;;;;;;5056221;28;20457;-68
2020/12/30 06:23:07;;;;;;;7.05;2.40;;;11.10;69.70;;;;;;5056588;28;20059;-70
2020/12/30 06:25:35;;;;;;;8.13;2.90;;;11.10;69.40;;;;;;5056752;28;20029;-69
2020/12/30 06:28:08;;;;;;;9.55;2.47;;;11.10;69.60;;;;;;5056467;28;20028;-69
2020/12/30 06:30:34;;;;;;;6.60;2.10;;;11.10;69.40;;;;;;5056385;28;20494;-69
2020/12/30 06:33:01;;;;;;;9.13;2.50;;;11.10;69.40;;;;;;5055059;28;20180;-71
2020/12/30 06:35:30;;;;;;;10.23;2.58;;;11.10;69.40;;;;;;5055997;28;20150;-70
2020/12/30 06:37:57;;;;;;;10.80;3.15;;;11.10;69.30;;;;;;5056131;28;20351;-70
2020/12/30 06:40:24;;;;;;;11.85;3.05;;;11.10;69.40;;;;;;5055966;28;20135;-70
2020/12/30 06:42:58;;;;;;;10.02;3.17;;;11.20;69.20;;;;;;5056049;28;20024;-69
2020/12/30 06:45:42;;;;;;;7.60;3.00;;;11.20;69.00;;;;;;5056005;28;20057;-69
2020/12/30 06:48:09;;;;;;;35.22;20.42;;;11.20;69.10;;;;;;5055930;28;20032;-69
2020/12/30 06:50:34;;;;;;;20.15;9.50;;;11.30;69.20;;;;;;5055658;28;20013;-69
2020/12/30 06:53:29;;;;;;;19.55;8.20;;;11.20;69.00;;;;;;5055752;28;20031;-70
2020/12/30 06:55:57;;;;;;;15.30;7.30;;;11.20;68.90;;;;;;5054717;28;20025;-70
2020/12/30 06:58:49;;;;;;;12.27;5.03;;;11.20;69.30;;;;;;5055811;28;20171;-71
2020/12/30 07:01:17;;;;;;;8.40;3.63;;;11.10;69.40;;;;;;5055744;28;20025;-70
2020/12/30 07:03:44;;;;;;;8.60;2.83;;;11.10;69.50;;;;;;5055502;28;20036;-70
2020/12/30 07:06:25;;;;;;;11.73;3.50;;;11.10;69.60;;;;;;5055704;28;20036;-70
2020/12/30 07:08:57;;;;;;;7.90;3.22;;;11.10;69.40;;;;;;5055554;28;20454;-71
2020/12/30 07:11:38;;;;;;;10.60;3.88;;;11.10;69.90;;;;;;5055552;28;20029;-70
2020/12/30 07:14:12;;;;;;;16.52;4.93;;;11.20;69.80;;;;;;5055193;28;20048;-70
2020/12/30 07:16:40;;;;;;;10.45;4.07;;;11.20;69.60;;;;;;5055386;28;20121;-69
2020/12/30 07:19:16;;;;;;;14.50;3.95;;;11.10;69.90;;;;;;5055276;28;20391;-70
2020/12/30 07:22:03;;;;;;;14.45;4.68;;;11.10;69.70;;;;;;5055254;28;20025;-71
2020/12/30 07:24:36;;;;;;;13.00;3.53;;;11.10;69.60;;;;;;5055385;28;20392;-71
2020/12/30 07:27:08;;;;;;;13.77;4.15;;;11.20;69.70;;;;;;5055093;28;20021;-69
2020/12/30 07:29:34;;;;;;;12.15;3.33;;;11.20;69.60;;;;;;5055474;28;20362;-70
2020/12/30 07:32:02;;;;;;;10.55;3.20;;;11.20;69.60;;;;;;5053746;28;20017;-70
2020/12/30 07:34:49;;;;;;;10.55;3.60;;;11.30;69.50;;;;;;5055198;28;20135;-71
2020/12/30 07:37:16;;;;;;;11.93;4.28;;;11.40;69.30;;;;;;5054783;28;20115;-70
2020/12/30 07:39:43;;;;;;;13.98;4.93;;;11.40;69.10;;;;;;5054671;28;20023;-69
2020/12/30 07:42:21;;;;;;;13.48;5.38;;;11.50;69.00;;;;;;5054919;28;20025;-71
2020/12/30 07:44:49;;;;;;;14.75;5.35;;;11.50;69.00;;;;;;5054782;28;20021;-70
2020/12/30 07:47:16;;;;;;;18.85;4.60;;;11.50;69.00;;;;;;5054911;28;20031;-69
2020/12/30 07:49:42;;;;;;;12.23;3.40;;;11.50;68.90;;;;;;5054792;28;20029;-70
2020/12/30 07:52:09;;;;;;;12.63;3.58;;;11.60;68.70;;;;;;5054540;28;20029;-70
2020/12/30 07:54:35;;;;;;;18.25;4.13;;;11.70;68.60;;;;;;5054635;28;20021;-71
2020/12/30 07:57:11;;;;;;;12.25;3.65;;;11.70;68.50;;;;;;5054173;28;20111;-70
2020/12/30 07:59:39;;;;;;;13.30;4.50;;;11.70;68.50;;;;;;5054646;28;20025;-71
2020/12/30 08:02:05;;;;;;;12.18;4.15;;;11.70;68.10;;;;;;5054369;28;20472;-71
2020/12/30 08:04:33;;;;;;;16.95;4.57;;;11.70;68.70;;;;;;5054260;28;20429;-71
2020/12/30 08:07:01;;;;;;;10.93;3.90;;;11.70;68.80;;;;;;5054153;28;20028;-69
2020/12/30 08:09:32;;;;;;;12.90;4.30;;;11.70;68.90;;;;;;5054221;28;20021;-70
2020/12/30 08:12:04;;;;;;;11.30;4.20;;;11.70;68.90;;;;;;5054481;28;20524;-70
2020/12/30 08:14:31;;;;;;;12.38;4.45;;;11.70;68.80;;;;;;5053871;28;20056;-69
2020/12/30 08:17:10;;;;;;;13.85;4.47;;;11.80;68.80;;;;;;5052801;28;20090;-70
2020/12/30 08:19:42;;;;;;;10.27;4.78;;;11.80;68.70;;;;;;5053826;28;20021;-70
2020/12/30 08:22:16;;;;;;;16.00;5.22;;;11.80;68.40;;;;;;5054192;28;20029;-70
2020/12/30 08:24:43;;;;;;;10.07;4.85;;;11.80;68.20;;;;;;5053888;28;20024;-71
2020/12/30 08:27:10;;;;;;;14.05;4.82;;;11.80;68.20;;;;;;5053144;28;20355;-69
2020/12/30 08:29:39;;;;;;;14.80;5.32;;;11.90;68.20;;;;;;5052784;28;20056;-70
2020/12/30 08:32:16;;;;;;;15.27;5.82;;;11.90;68.10;;;;;;5052356;28;20066;-70
2020/12/30 08:34:50;;;;;;;10.90;4.93;;;11.90;68.30;;;;;;5053632;28;20033;-71
2020/12/30 08:37:22;;;;;;;15.60;6.13;;;11.90;68.00;;;;;;5053596;28;20036;-71
2020/12/30 08:40:10;;;;;;;17.25;6.28;;;11.90;68.30;;;;;;5053713;28;20036;-69
2020/12/30 08:43:14;;;;;;;12.38;5.25;;;11.90;68.40;;;;;;5053591;28;20025;-72
2020/12/30 08:45:49;;;;;;;14.20;5.40;;;11.90;68.10;;;;;;5053201;28;20037;-70
2020/12/30 08:48:17;;;;;;;12.30;5.45;;;12.00;67.90;;;;;;5053443;28;20029;-70
2020/12/30 08:50:43;;;;;;;12.43;4.90;;;12.20;67.90;;;;;;5053535;28;20025;-71
2020/12/30 08:53:11;;;;;;;17.88;4.50;;;12.20;67.60;;;;;;5053175;28;20025;-73
2020/12/30 08:55:37;;;;;;;13.25;4.50;;;12.30;67.40;;;;;;5053186;28;20041;-75
2020/12/30 08:58:03;;;;;;;17.15;5.38;;;12.40;67.10;;;;;;5053709;28;20049;-71
2020/12/30 09:00:36;;;;;;;15.13;5.28;;;12.40;67.20;;;;;;5052951;28;20474;-70
2020/12/30 09:03:13;;;;;;;11.30;3.20;;;12.40;67.30;;;;;;5051982;28;20162;-73
2020/12/30 09:05:40;;;;;;;15.88;5.38;;;12.40;67.50;;;;;;5053202;28;20017;-71
2020/12/30 09:08:27;;;;;;;21.92;5.05;;;12.40;67.40;;;;;;5053163;28;20532;-70
2020/12/30 09:10:53;;;;;;;11.75;5.47;;;12.40;67.60;;;;;;5053254;28;20047;-70
2020/12/30 09:13:29;;;;;;;15.70;5.78;;;12.40;67.60;;;;;;5053397;28;20025;-72
2020/12/30 09:16:02;;;;;;;15.80;5.57;;;12.40;68.10;;;;;;5053340;28;20425;-72
2020/12/30 09:18:28;;;;;;;14.80;5.63;;;12.50;67.80;;;;;;5052787;28;20498;-69
2020/12/30 09:20:54;;;;;;;13.23;5.38;;;12.50;68.00;;;;;;5053216;28;20021;-74
2020/12/30 09:23:24;;;;;;;25.33;6.00;;;12.60;68.10;;;;;;5053404;28;20430;-70
2020/12/30 09:25:51;;;;;;;14.13;4.72;;;12.70;68.00;;;;;;5052025;28;20028;-72
2020/12/30 09:28:19;;;;;;;15.13;4.90;;;12.70;67.60;;;;;;5053507;28;20028;-73
2020/12/30 09:30:46;;;;;;;13.00;3.63;;;12.90;67.50;;;;;;5053569;28;20107;-72
2020/12/30 09:33:18;;;;;;;9.02;3.17;;;12.90;67.40;;;;;;5053525;28;20021;-75
2020/12/30 09:35:46;;;;;;;11.00;3.22;;;13.00;67.40;;;;;;5053814;28;20079;-73
2020/12/30 09:38:20;;;;;;;13.45;3.55;;;13.00;67.30;;;;;;5052878;28;20116;-73
2020/12/30 09:40:48;;;;;;;13.88;3.10;;;13.00;67.40;;;;;;5053339;28;20024;-72
2020/12/30 09:43:19;;;;;;;10.77;3.30;;;12.90;67.10;;;;;;5053161;28;20099;-75
2020/12/30 09:45:46;;;;;;;8.43;2.47;;;12.90;67.20;;;;;;5051834;28;20017;-71
2020/12/30 09:48:14;;;;;;;10.57;2.72;;;12.90;66.90;;;;;;5053086;28;20053;-71
2020/12/30 09:50:42;;;;;;;7.80;2.38;;;13.00;66.90;;;;;;5052910;28;20064;-71
2020/12/30 09:53:08;;;;;;;11.30;1.98;;;13.00;66.30;;;;;;5052730;28;20017;-70
2020/12/30 09:55:34;;;;;;;10.45;2.00;;;13.10;66.10;;;;;;5052718;28;20543;-70
2020/12/30 09:58:00;;;;;;;11.48;2.50;;;13.20;65.50;;;;;;5052777;28;20033;-72
2020/12/30 10:00:26;;;;;;;13.82;2.72;;;13.30;65.20;;;;;;5052696;28;20013;-73
2020/12/30 10:02:51;;;;;;;7.72;2.45;;;13.40;64.90;;;;;;5053215;28;20093;-70
2020/12/30 10:05:17;;;;;;;9.00;2.70;;;13.60;64.90;;;;;;5053139;28;20100;-70
2020/12/30 10:07:43;;;;;;;6.75;2.25;;;13.60;64.60;;;;;;5052634;28;20029;-71
2020/12/30 10:10:09;;;;;;;14.38;3.10;;;13.60;64.40;;;;;;5052214;28;20032;-71
2020/12/30 10:12:38;;;;;;;6.82;1.70;;;13.60;64.40;;;;;;5052184;28;20056;-70
2020/12/30 10:15:07;;;;;;;6.53;1.90;;;13.60;64.20;;;;;;5051903;28;20501;-71
2020/12/30 10:17:33;;;;;;;5.93;1.88;;;13.70;63.60;;;;;;5051778;28;20037;-71
2020/12/30 10:19:59;;;;;;;8.77;1.98;;;13.80;63.40;;;;;;5052055;28;20060;-71
2020/12/30 10:22:25;;;;;;;7.75;1.80;;;13.90;63.00;;;;;;5050487;28;20028;-71
2020/12/30 10:24:50;;;;;;;5.85;1.75;;;13.80;62.70;;;;;;5052230;28;20116;-73
2020/12/30 10:27:16;;;;;;;7.43;1.70;;;13.80;63.00;;;;;;5052164;28;20118;-70
2020/12/30 10:29:42;;;;;;;7.00;1.80;;;13.80;63.20;;;;;;5051714;28;20035;-70
2020/12/30 10:32:08;;;;;;;10.43;2.40;;;13.80;63.30;;;;;;5056055;28;20085;-72
2020/12/30 10:34:35;;;;;;;9.02;2.20;;;13.80;63.20;;;;;;5055581;28;20075;-71
2020/12/30 10:37:02;;;;;;;8.15;2.70;;;14.00;63.10;;;;;;5055662;28;20033;-70
2020/12/30 10:39:27;;;;;;;14.50;3.00;;;14.20;62.90;;;;;;5054204;28;20021;-71
2020/12/30 10:41:57;;;;;;;9.57;2.58;;;14.40;62.50;;;;;;5055788;28;20338;-72
2020/12/30 10:44:23;;;;;;;7.85;2.58;;;14.60;62.30;;;;;;5055434;28;20021;-73
2020/12/30 10:46:49;;;;;;;8.75;2.72;;;14.60;61.80;;;;;;5055742;28;20032;-71
2020/12/30 10:49:15;;;;;;;8.57;2.20;;;14.60;61.60;;;;;;5055379;28;20100;-72
2020/12/30 10:51:45;;;;;;;10.25;2.45;;;14.70;61.50;;;;;;5055503;28;20021;-71
2020/12/30 10:54:11;;;;;;;7.60;2.58;;;14.60;61.30;;;;;;5055481;28;20032;-72
2020/12/30 10:56:37;;;;;;;11.93;3.40;;;14.50;61.50;;;;;;5055256;28;20041;-71
2020/12/30 10:59:04;;;;;;;10.15;3.28;;;14.50;61.80;;;;;;5055408;28;20025;-71
2020/12/30 11:01:29;;;;;;;14.13;3.05;;;14.40;62.00;;;;;;5055631;28;20082;-71
2020/12/30 11:03:55;;;;;;;15.25;2.90;;;14.30;61.80;;;;;;5055303;28;20480;-71
2020/12/30 11:06:21;;;;;;;7.00;2.50;;;14.20;61.90;;;;;;5055457;28;20044;-71
2020/12/30 11:08:48;;;;;;;8.63;2.35;;;14.20;61.90;;;;;;5055254;28;20032;-72
2020/12/30 11:11:14;;;;;;;8.07;2.53;;;14.00;62.20;;;;;;5055317;28;20033;-71
2020/12/30 11:13:41;;;;;;;11.38;2.92;;;13.90;62.20;;;;;;5055056;28;20029;-70
2020/12/30 11:16:09;;;;;;;11.30;2.90;;;13.90;62.60;;;;;;5054909;28;20044;-70
2020/12/30 11:18:35;;;;;;;7.75;2.55;;;13.90;62.60;;;;;;5054875;28;20021;-72
2020/12/30 11:21:00;;;;;;;7.97;2.38;;;13.90;62.70;;;;;;5055036;28;20025;-70
2020/12/30 11:23:26;;;;;;;7.60;2.00;;;13.90;63.20;;;;;;5053633;28;20048;-70
2020/12/30 11:25:54;;;;;;;10.00;2.17;;;13.90;62.70;;;;;;5054781;28;20028;-71
2020/12/30 11:28:20;;;;;;;7.90;1.90;;;13.90;62.70;;;;;;5054811;28;20033;-71
2020/12/30 11:30:45;;;;;;;9.00;2.90;;;13.80;62.20;;;;;;5054847;28;20379;-73
2020/12/30 11:33:12;;;;;;;8.35;2.45;;;13.80;62.40;;;;;;5054793;28;20033;-71
2020/12/30 11:35:41;;;;;;;13.55;3.65;;;13.80;62.40;;;;;;5054742;28;20108;-71
2020/12/30 11:38:07;;;;;;;12.95;2.60;;;13.70;62.80;;;;;;5054734;28;20025;-71
2020/12/30 11:40:33;;;;;;;7.85;2.42;;;13.60;62.30;;;;;;5054342;28;20077;-71
2020/12/30 11:42:59;;;;;;;12.48;2.85;;;13.60;62.40;;;;;;5054056;28;20424;-71
2020/12/30 11:45:25;;;;;;;6.63;1.80;;;13.60;62.80;;;;;;5054661;28;20025;-70
2020/12/30 11:47:50;;;;;;;6.85;2.30;;;13.40;62.80;;;;;;5054624;28;20473;-72
2020/12/30 11:50:16;;;;;;;6.35;1.90;;;13.30;62.40;;;;;;5054556;28;20020;-71
2020/12/30 11:52:43;;;;;;;9.15;2.15;;;13.20;62.40;;;;;;5054445;28;20040;-70
2020/12/30 11:55:09;;;;;;;5.95;1.50;;;13.10;62.10;;;;;;5054329;28;20029;-71
2020/12/30 11:57:35;;;;;;;4.75;1.45;;;13.10;61.90;;;;;;5054515;28;20481;-70
2020/12/30 12:00:07;;;;;;;5.88;1.60;;;13.10;61.90;;;;;;5054160;28;20025;-71
2020/12/30 12:02:34;;;;;;;7.78;2.88;;;13.10;62.70;;;;;;5054372;28;20052;-69
2020/12/30 12:05:00;;;;;;;5.15;2.45;;;13.10;62.00;;;;;;5054045;28;20025;-71
2020/12/30 12:07:27;;;;;;;5.32;2.13;;;13.10;62.10;;;;;;5054192;28;20043;-72
2020/12/30 12:09:53;;;;;;;5.72;2.22;;;13.10;61.90;;;;;;5054285;28;20387;-70
2020/12/30 12:12:18;;;;;;;8.02;2.03;;;13.10;62.30;;;;;;5053746;28;20045;-70
2020/12/30 12:14:44;;;;;;;5.28;2.03;;;13.20;62.30;;;;;;5053819;28;20053;-71
2020/12/30 12:17:10;;;;;;;6.53;2.00;;;13.20;62.20;;;;;;5053976;28;20041;-71
2020/12/30 12:19:35;;;;;;;5.53;2.28;;;13.30;62.40;;;;;;5053638;28;20421;-70
2020/12/30 12:22:01;;;;;;;6.57;1.90;;;13.30;62.10;;;;;;5054062;28;20064;-70
2020/12/30 12:24:27;;;;;;;5.18;1.90;;;13.30;62.30;;;;;;5053544;28;20020;-70
2020/12/30 12:26:52;;;;;;;8.60;2.85;;;13.30;61.90;;;;;;5053866;28;20029;-71
2020/12/30 12:29:22;;;;;;;8.02;2.95;;;13.30;61.80;;;;;;5053367;28;20024;-72
2020/12/30 12:32:12;;;;;;;5.65;2.30;;;13.40;62.20;;;;;;5053785;28;20111;-70
2020/12/30 12:34:43;;;;;;;6.20;2.30;;;13.30;61.00;;;;;;5053773;28;20035;-70
2020/12/30 12:37:10;;;;;;;6.15;3.00;;;13.40;60.40;;;;;;5053474;28;20128;-72
2020/12/30 12:39:37;;;;;;;10.10;2.80;;;13.40;60.50;;;;;;5053268;28;20084;-71
2020/12/30 12:42:03;;;;;;;10.00;2.72;;;13.50;60.50;;;;;;5053332;28;20390;-69
2020/12/30 12:44:30;;;;;;;5.05;2.10;;;13.50;60.50;;;;;;5052764;28;20025;-71
2020/12/30 12:46:55;;;;;;;6.18;2.28;;;13.50;60.50;;;;;;5052992;28;20032;-71